sensor_id;sensor_type;location;lat;lon;timestamp;pressure;altitude;pressure_sealevel;temperature;humidity
72210;BME280;60113;48.762;12.302;2023-03-16T00:00:31;97712.78;;;-4.86;85.10
72210;BME280;60113;48.762;12.302;2023-03-16T00:02:59;97708.56;;;-4.91;85.56
72210;BME280;60113;48.762;12.302;2023-03-16T00:05:25;97714.56;;;-4.93;86.48
72210;BME280;60113;48.762;12.302;2023-03-16T00:07:50;97719.72;;;-4.98;85.63
72210;BME280;60113;48.762;12.302;2023-03-16T00:10:15;97707.78;;;-5.05;86.76
72210;BME280;60113;48.762;12.302;2023-03-16T00:12:41;97706.13;;;-5.12;87.70
72210;BME280;60113;48.762;12.302;2023-03-16T00:15:07;97715.53;;;-5.18;86.72
72210;BME280;60113;48.762;12.302;2023-03-16T00:17:33;97713.00;;;-5.21;87.80
72210;BME280;60113;48.762;12.302;2023-03-16T00:19:58;97715.56;;;-5.21;88.40
72210;BME280;60113;48.762;12.302;2023-03-16T00:22:28;97714.72;;;-5.18;88.12
72210;BME280;60113;48.762;12.302;2023-03-16T00:24:54;97709.59;;;-5.20;85.13
72210;BME280;60113;48.762;12.302;2023-03-16T00:27:22;97709.59;;;-5.21;83.81
72210;BME280;60113;48.762;12.302;2023-03-16T00:29:49;97713.00;;;-5.25;85.03
72210;BME280;60113;48.762;12.302;2023-03-16T00:32:19;97716.47;;;-5.31;86.39
72210;BME280;60113;48.762;12.302;2023-03-16T00:34:45;97718.22;;;-5.36;87.72
72210;BME280;60113;48.762;12.302;2023-03-16T00:37:12;97720.78;;;-5.38;89.40
72210;BME280;60113;48.762;12.302;2023-03-16T00:39:39;97717.38;;;-5.40;88.07
72210;BME280;60113;48.762;12.302;2023-03-16T00:42:06;97717.38;;;-5.40;86.72
72210;BME280;60113;48.762;12.302;2023-03-16T00:44:31;97714.81;;;-5.42;84.81
72210;BME280;60113;48.762;12.302;2023-03-16T00:46:56;97716.50;;;-5.42;86.88
72210;BME280;60113;48.762;12.302;2023-03-16T00:49:21;97713.97;;;-5.47;83.89
72210;BME280;60113;48.762;12.302;2023-03-16T00:51:47;97721.66;;;-5.45;87.61
72210;BME280;60113;48.762;12.302;2023-03-16T00:54:12;97715.72;;;-5.49;86.94
72210;BME280;60113;48.762;12.302;2023-03-16T00:56:38;97720.84;;;-5.54;82.83
72210;BME280;60113;48.762;12.302;2023-03-16T00:59:03;97716.56;;;-5.52;84.56
72210;BME280;60113;48.762;12.302;2023-03-16T01:01:29;97707.19;;;-5.54;87.33
72210;BME280;60113;48.762;12.302;2023-03-16T01:03:56;97710.63;;;-5.57;84.61
72210;BME280;60113;48.762;12.302;2023-03-16T01:06:23;97720.84;;;-5.55;85.62
72210;BME280;60113;48.762;12.302;2023-03-16T01:08:49;97722.56;;;-5.59;86.61
72210;BME280;60113;48.762;12.302;2023-03-16T01:11:17;97721.72;;;-5.62;87.20
72210;BME280;60113;48.762;12.302;2023-03-16T01:13:43;97714.03;;;-5.64;87.99
72210;BME280;60113;48.762;12.302;2023-03-16T01:16:11;97704.66;;;-5.67;88.63
72210;BME280;60113;48.762;12.302;2023-03-16T01:18:37;97708.09;;;-5.72;88.38
72210;BME280;60113;48.762;12.302;2023-03-16T01:21:06;97703.84;;;-5.78;88.68
72210;BME280;60113;48.762;12.302;2023-03-16T01:23:33;97697.91;;;-5.83;90.28
72210;BME280;60113;48.762;12.302;2023-03-16T01:25:58;97702.16;;;-5.87;90.90
72210;BME280;60113;48.762;12.302;2023-03-16T01:28:24;97709.84;;;-5.93;91.03
72210;BME280;60113;48.762;12.302;2023-03-16T01:30:51;97700.47;;;-5.94;91.08
72210;BME280;60113;48.762;12.302;2023-03-16T01:33:21;97700.50;;;-6.00;90.44
72210;BME280;60113;48.762;12.302;2023-03-16T01:35:57;97699.63;;;-6.01;92.45
72210;BME280;60113;48.762;12.302;2023-03-16T01:38:23;97699.69;;;-6.09;87.51
72210;BME280;60113;48.762;12.302;2023-03-16T01:40:49;97692.00;;;-6.09;85.35
72210;BME280;60113;48.762;12.302;2023-03-16T01:43:15;97692.88;;;-6.08;85.52
72210;BME280;60113;48.762;12.302;2023-03-16T01:48:26;97692.00;;;-6.09;86.02
72210;BME280;60113;48.762;12.302;2023-03-16T01:50:55;97694.56;;;-6.10;86.36
72210;BME280;60113;48.762;12.302;2023-03-16T01:53:20;97695.44;;;-6.16;85.83
72210;BME280;60113;48.762;12.302;2023-03-16T01:55:48;97694.59;;;-6.21;85.91
72210;BME280;60113;48.762;12.302;2023-03-16T01:58:14;97694.59;;;-6.28;87.04
72210;BME280;60113;48.762;12.302;2023-03-16T02:00:40;97698.88;;;-6.28;87.04
72210;BME280;60113;48.762;12.302;2023-03-16T02:03:10;97691.19;;;-6.28;88.72
72210;BME280;60113;48.762;12.302;2023-03-16T02:05:39;97698.88;;;-6.28;90.48
72210;BME280;60113;48.762;12.302;2023-03-16T02:08:06;97692.03;;;-6.29;90.06
72210;BME280;60113;48.762;12.302;2023-03-16T02:10:32;97691.19;;;-6.28;92.34
72210;BME280;60113;48.762;12.302;2023-03-16T02:12:58;97692.03;;;-6.31;92.26
72210;BME280;60113;48.762;12.302;2023-03-16T02:15:24;97699.72;;;-6.29;91.94
72210;BME280;60113;48.762;12.302;2023-03-16T02:17:54;97698.88;;;-6.34;89.46
72210;BME280;60113;48.762;12.302;2023-03-16T02:22:52;97701.44;;;-6.36;86.78
72210;BME280;60113;48.762;12.302;2023-03-16T02:25:18;97702.28;;;-6.34;87.14
72210;BME280;60113;48.762;12.302;2023-03-16T02:28:09;97699.72;;;-6.35;87.99
72210;BME280;60113;48.762;12.302;2023-03-16T02:30:34;97698.88;;;-6.36;86.94
72210;BME280;60113;48.762;12.302;2023-03-16T02:33:00;97694.59;;;-6.38;84.32
72210;BME280;60113;48.762;12.302;2023-03-16T02:35:26;97700.59;;;-6.41;83.41
72210;BME280;60113;48.762;12.302;2023-03-16T02:37:51;97702.28;;;-6.40;88.51
72210;BME280;60113;48.762;12.302;2023-03-16T02:42:42;97706.56;;;-6.37;84.97
72210;BME280;60113;48.762;12.302;2023-03-16T02:45:08;97709.13;;;-6.37;87.58
72210;BME280;60113;48.762;12.302;2023-03-16T02:47:41;97703.13;;;-6.44;85.56
72210;BME280;60113;48.762;12.302;2023-03-16T02:50:07;97698.03;;;-6.47;86.10
72210;BME280;60113;48.762;12.302;2023-03-16T02:52:36;97704.84;;;-6.51;87.21
72210;BME280;60113;48.762;12.302;2023-03-16T02:55:02;97701.44;;;-6.55;86.78
72210;BME280;60113;48.762;12.302;2023-03-16T02:57:27;97698.03;;;-6.60;81.21
72210;BME280;60113;48.762;12.302;2023-03-16T02:59:52;97704.00;;;-6.61;79.79
72210;BME280;60113;48.762;12.302;2023-03-16T03:02:18;97700.59;;;-6.61;80.28
72210;BME280;60113;48.762;12.302;2023-03-16T03:04:43;97698.88;;;-6.61;81.93
72210;BME280;60113;48.762;12.302;2023-03-16T03:07:12;97702.28;;;-6.63;82.06
72210;BME280;60113;48.762;12.302;2023-03-16T03:09:39;97705.69;;;-6.60;83.66
72210;BME280;60113;48.762;12.302;2023-03-16T03:12:07;97711.69;;;-6.53;85.86
72210;BME280;60113;48.762;12.302;2023-03-16T03:14:32;97709.13;;;-6.53;85.08
72210;BME280;60113;48.762;12.302;2023-03-16T03:17:03;97715.06;;;-6.54;85.47
72210;BME280;60113;48.762;12.302;2023-03-16T03:19:29;97714.22;;;-6.50;85.73
72210;BME280;60113;48.762;12.302;2023-03-16T03:21:54;97726.16;;;-6.49;86.05
72210;BME280;60113;48.762;12.302;2023-03-16T03:24:21;97721.91;;;-6.47;86.38
72210;BME280;60113;48.762;12.302;2023-03-16T03:26:47;97717.63;;;-6.45;87.17
72210;BME280;60113;48.762;12.302;2023-03-16T03:29:12;97716.78;;;-6.42;86.55
72210;BME280;60113;48.762;12.302;2023-03-16T03:31:38;97720.19;;;-6.35;86.66
72210;BME280;60113;48.762;12.302;2023-03-16T03:34:04;97720.19;;;-6.31;86.68
72210;BME280;60113;48.762;12.302;2023-03-16T03:36:31;97720.16;;;-6.23;87.24
72210;BME280;60113;48.762;12.302;2023-03-16T03:38:56;97722.72;;;-6.17;87.32
72210;BME280;60113;48.762;12.302;2023-03-16T03:41:21;97727.84;;;-6.09;88.29
72210;BME280;60113;48.762;12.302;2023-03-16T03:43:47;97719.28;;;-6.03;88.98
72210;BME280;60113;48.762;12.302;2023-03-16T03:46:12;97710.72;;;-5.94;90.50
72210;BME280;60113;48.762;12.302;2023-03-16T03:48:37;97708.97;;;-5.87;90.50
72210;BME280;60113;48.762;12.302;2023-03-16T03:51:05;97708.94;;;-5.77;94.31
72210;BME280;60113;48.762;12.302;2023-03-16T03:53:31;97708.13;;;-5.75;93.28
72210;BME280;60113;48.762;12.302;2023-03-16T03:55:56;97705.53;;;-5.71;92.79
72210;BME280;60113;48.762;12.302;2023-03-16T03:58:22;97707.22;;;-5.63;93.38
72210;BME280;60113;48.762;12.302;2023-03-16T04:00:47;97710.63;;;-5.58;93.84
72210;BME280;60113;48.762;12.302;2023-03-16T04:03:12;97709.75;;;-5.59;91.70
72210;BME280;60113;48.762;12.302;2023-03-16T04:05:38;97710.59;;;-5.55;89.83
72210;BME280;60113;48.762;12.302;2023-03-16T04:08:03;97712.28;;;-5.49;90.09
72210;BME280;60113;48.762;12.302;2023-03-16T04:10:29;97713.97;;;-5.47;90.22
72210;BME280;60113;48.762;12.302;2023-03-16T04:12:55;97708.00;;;-5.43;90.03
72210;BME280;60113;48.762;12.302;2023-03-16T04:15:21;97706.25;;;-5.39;89.98
72210;BME280;60113;48.762;12.302;2023-03-16T04:17:50;97721.59;;;-5.36;89.11
72210;BME280;60113;48.762;12.302;2023-03-16T04:20:19;97711.34;;;-5.31;89.61
72210;BME280;60113;48.762;12.302;2023-03-16T04:22:45;97714.75;;;-5.28;89.56
72210;BME280;60113;48.762;12.302;2023-03-16T04:25:11;97719.84;;;-5.23;90.29
72210;BME280;60113;48.762;12.302;2023-03-16T04:27:37;97724.97;;;-5.20;89.26
72210;BME280;60113;48.762;12.302;2023-03-16T04:30:06;97730.06;;;-5.15;89.45
72210;BME280;60113;48.762;12.302;2023-03-16T04:32:35;97724.94;;;-5.12;90.12
72210;BME280;60113;48.762;12.302;2023-03-16T04:35:01;97722.34;;;-5.06;91.96
72210;BME280;60113;48.762;12.302;2023-03-16T04:37:26;97733.41;;;-5.02;91.54
72210;BME280;60113;48.762;12.302;2023-03-16T04:39:51;97736.78;;;-4.95;92.45
72210;BME280;60113;48.762;12.302;2023-03-16T04:42:17;97734.22;;;-4.92;92.84
72210;BME280;60113;48.762;12.302;2023-03-16T04:44:42;97730.75;;;-4.88;94.14
72210;BME280;60113;48.762;12.302;2023-03-16T04:47:12;97741.88;;;-4.86;92.59
72210;BME280;60113;48.762;12.302;2023-03-16T04:49:38;97735.03;;;-4.84;92.35
72210;BME280;60113;48.762;12.302;2023-03-16T04:52:03;97739.25;;;-4.80;92.82
72210;BME280;60113;48.762;12.302;2023-03-16T04:54:31;97734.09;;;-4.73;93.31
72210;BME280;60113;48.762;12.302;2023-03-16T04:56:57;97729.81;;;-4.70;93.63
72210;BME280;60113;48.762;12.302;2023-03-16T04:59:23;97721.22;;;-4.66;92.42
72210;BME280;60113;48.762;12.302;2023-03-16T05:01:48;97720.34;;;-4.63;90.29
72210;BME280;60113;48.762;12.302;2023-03-16T05:04:16;97721.97;;;-4.56;92.23
72210;BME280;60113;48.762;12.302;2023-03-16T05:06:44;97718.53;;;-4.48;95.12
72210;BME280;60113;48.762;12.302;2023-03-16T05:09:12;97715.94;;;-4.47;96.63
72210;BME280;60113;48.762;12.302;2023-03-16T05:11:38;97715.97;;;-4.50;95.36
72210;BME280;60113;48.762;12.302;2023-03-16T05:14:03;97704.81;;;-4.46;96.39
72210;BME280;60113;48.762;12.302;2023-03-16T05:16:29;97702.22;;;-4.44;97.65
72210;BME280;60113;48.762;12.302;2023-03-16T05:18:56;97700.53;;;-4.44;97.39
72210;BME280;60113;48.762;12.302;2023-03-16T05:21:25;97705.63;;;-4.39;97.81
72210;BME280;60113;48.762;12.302;2023-03-16T05:23:50;97699.59;;;-4.36;97.49
72210;BME280;60113;48.762;12.302;2023-03-16T05:26:15;97698.72;;;-4.34;96.63
72210;BME280;60113;48.762;12.302;2023-03-16T05:28:42;97693.56;;;-4.31;96.51
72210;BME280;60113;48.762;12.302;2023-03-16T05:31:08;97699.53;;;-4.27;96.21
72210;BME280;60113;48.762;12.302;2023-03-16T05:33:34;97708.88;;;-4.21;98.40
72210;BME280;60113;48.762;12.302;2023-03-16T05:35:59;97709.75;;;-4.21;98.76
72210;BME280;60113;48.762;12.302;2023-03-16T05:38:27;97703.75;;;-4.23;99.43
72210;BME280;60113;48.762;12.302;2023-03-16T05:40:52;97707.19;;;-4.22;99.29
72210;BME280;60113;48.762;12.302;2023-03-16T05:43:21;97708.88;;;-4.20;99.31
72210;BME280;60113;48.762;12.302;2023-03-16T05:45:47;97705.47;;;-4.22;98.65
72210;BME280;60113;48.762;12.302;2023-03-16T05:48:15;97710.59;;;-4.20;98.27
72210;BME280;60113;48.762;12.302;2023-03-16T05:50:42;97713.97;;;-4.18;98.50
72210;BME280;60113;48.762;12.302;2023-03-16T05:53:08;97699.44;;;-4.18;97.27
72210;BME280;60113;48.762;12.302;2023-03-16T05:55:33;97702.84;;;-4.14;97.01
72210;BME280;60113;48.762;12.302;2023-03-16T05:58:01;97698.56;;;-4.15;96.24
72210;BME280;60113;48.762;12.302;2023-03-16T06:00:26;97699.41;;;-4.15;94.68
72210;BME280;60113;48.762;12.302;2023-03-16T06:02:53;97701.09;;;-4.12;95.66
72210;BME280;60113;48.762;12.302;2023-03-16T06:05:19;97698.50;;;-4.10;96.20
72210;BME280;60113;48.762;12.302;2023-03-16T06:07:46;97698.47;;;-4.06;96.17
72210;BME280;60113;48.762;12.302;2023-03-16T06:10:12;97698.41;;;-4.01;96.01
72210;BME280;60113;48.762;12.302;2023-03-16T06:12:40;97701.81;;;-3.96;94.94
72210;BME280;60113;48.762;12.302;2023-03-16T06:15:06;97704.31;;;-3.90;96.67
72210;BME280;60113;48.762;12.302;2023-03-16T06:17:32;97706.00;;;-3.90;97.98
72210;BME280;60113;48.762;12.302;2023-03-16T06:19:58;97710.31;;;-3.92;97.83
72210;BME280;60113;48.762;12.302;2023-03-16T06:22:23;97712.81;;;-3.87;97.51
72210;BME280;60113;48.762;12.302;2023-03-16T06:24:49;97705.09;;;-3.86;97.41
72210;BME280;60113;48.762;12.302;2023-03-16T06:27:14;97715.31;;;-3.81;97.44
72210;BME280;60113;48.762;12.302;2023-03-16T06:29:41;97711.94;;;-3.82;99.09
72210;BME280;60113;48.762;12.302;2023-03-16T06:32:06;97707.63;;;-3.83;99.03
72210;BME280;60113;48.762;12.302;2023-03-16T06:34:31;97707.59;;;-3.80;99.38
72210;BME280;60113;48.762;12.302;2023-03-16T06:36:58;97709.28;;;-3.75;99.35
72210;BME280;60113;48.762;12.302;2023-03-16T06:39:26;97706.69;;;-3.72;100.00
72210;BME280;60113;48.762;12.302;2023-03-16T06:41:52;97705.00;;;-3.75;100.00
72210;BME280;60113;48.762;12.302;2023-03-16T06:44:17;97709.25;;;-3.72;100.00
72210;BME280;60113;48.762;12.302;2023-03-16T06:46:42;97712.59;;;-3.67;100.00
72210;BME280;60113;48.762;12.302;2023-03-16T06:49:08;97713.41;;;-3.60;100.00
72210;BME280;60113;48.762;12.302;2023-03-16T06:51:33;97709.91;;;-3.56;100.00
72210;BME280;60113;48.762;12.302;2023-03-16T06:53:58;97707.28;;;-3.52;100.00
72210;BME280;60113;48.762;12.302;2023-03-16T06:56:24;97706.41;;;-3.47;100.00
72210;BME280;60113;48.762;12.302;2023-03-16T06:58:51;97709.75;;;-3.41;100.00
72210;BME280;60113;48.762;12.302;2023-03-16T07:01:19;97709.56;;;-3.27;100.00
72210;BME280;60113;48.762;12.302;2023-03-16T07:03:45;97718.81;;;-3.13;100.00
72210;BME280;60113;48.762;12.302;2023-03-16T07:06:11;97715.34;;;-3.09;100.00
72210;BME280;60113;48.762;12.302;2023-03-16T07:08:36;97728.94;;;-3.02;100.00
72210;BME280;60113;48.762;12.302;2023-03-16T07:11:02;97728.81;;;-2.91;100.00
72210;BME280;60113;48.762;12.302;2023-03-16T07:13:27;97722.78;;;-2.87;100.00
72210;BME280;60113;48.762;12.302;2023-03-16T07:15:52;97725.09;;;-2.70;100.00
72210;BME280;60113;48.762;12.302;2023-03-16T07:18:18;97736.91;;;-2.58;100.00
72210;BME280;60113;48.762;12.302;2023-03-16T07:20:44;97735.00;;;-2.45;99.81
72210;BME280;60113;48.762;12.302;2023-03-16T07:23:09;97736.50;;;-2.30;99.72
72210;BME280;60113;48.762;12.302;2023-03-16T07:25:35;97730.28;;;-2.18;99.17
72210;BME280;60113;48.762;12.302;2023-03-16T07:28:00;97734.38;;;-2.07;98.17
72210;BME280;60113;48.762;12.302;2023-03-16T07:30:26;97733.44;;;-2.00;96.13
72210;BME280;60113;48.762;12.302;2023-03-16T07:32:51;97731.53;;;-1.92;95.43
72210;BME280;60113;48.762;12.302;2023-03-16T07:35:16;97737.50;;;-1.88;93.66
72210;BME280;60113;48.762;12.302;2023-03-16T07:37:42;97733.94;;;-1.81;92.56
72210;BME280;60113;48.762;12.302;2023-03-16T07:40:08;97735.53;;;-1.75;92.52
72210;BME280;60113;48.762;12.302;2023-03-16T07:42:33;97737.03;;;-1.61;92.76
72210;BME280;60113;48.762;12.302;2023-03-16T07:44:59;97748.03;;;-1.55;92.73
72210;BME280;60113;48.762;12.302;2023-03-16T07:47:25;97741.81;;;-1.43;92.16
72210;BME280;60113;48.762;12.302;2023-03-16T07:49:50;97738.09;;;-1.28;91.79
72210;BME280;60113;48.762;12.302;2023-03-16T07:52:19;97741.41;;;-1.22;90.99
72210;BME280;60113;48.762;12.302;2023-03-16T07:54:47;97749.88;;;-1.16;91.85
72210;BME280;60113;48.762;12.302;2023-03-16T07:57:12;97743.69;;;-1.08;91.84
72210;BME280;60113;48.762;12.302;2023-03-16T07:59:41;97751.06;;;-0.91;91.53
72210;BME280;60113;48.762;12.302;2023-03-16T08:02:13;97754.78;;;-0.64;91.38
72210;BME280;60113;48.762;12.302;2023-03-16T08:04:39;97762.81;;;-0.38;91.14
72210;BME280;60113;48.762;12.302;2023-03-16T08:07:07;97761.53;;;-0.20;88.19
72210;BME280;60113;48.762;12.302;2023-03-16T08:09:32;97764.66;;;-0.07;87.92
72210;BME280;60113;48.762;12.302;2023-03-16T08:12:00;97769.72;;;-0.02;86.37
72210;BME280;60113;48.762;12.302;2023-03-16T08:14:26;97777.16;;;-0.26;85.55
72210;BME280;60113;48.762;12.302;2023-03-16T08:16:51;97773.78;;;-0.28;85.91
72210;BME280;60113;48.762;12.302;2023-03-16T08:19:16;97774.00;;;-0.38;87.03
72210;BME280;60113;48.762;12.302;2023-03-16T08:21:44;97771.66;;;-0.48;87.59
72210;BME280;60113;48.762;12.302;2023-03-16T08:24:09;97768.19;;;-0.47;87.40
72210;BME280;60113;48.762;12.302;2023-03-16T08:26:35;97766.50;;;-0.48;88.72
72210;BME280;60113;48.762;12.302;2023-03-16T08:29:00;97763.88;;;-0.47;88.62
72210;BME280;60113;48.762;12.302;2023-03-16T08:31:27;97768.16;;;-0.46;87.72
72210;BME280;60113;48.762;12.302;2023-03-16T08:33:55;97770.78;;;-0.47;88.58
72210;BME280;60113;48.762;12.302;2023-03-16T08:36:20;97771.53;;;-0.42;88.81
72210;BME280;60113;48.762;12.302;2023-03-16T08:38:46;97765.53;;;-0.44;89.05
72210;BME280;60113;48.762;12.302;2023-03-16T08:41:11;97773.41;;;-0.49;89.26
72210;BME280;60113;48.762;12.302;2023-03-16T08:43:37;97769.84;;;-0.45;89.97
72210;BME280;60113;48.762;12.302;2023-03-16T08:46:02;97769.59;;;-0.34;89.48
72210;BME280;60113;48.762;12.302;2023-03-16T08:48:29;97761.66;;;-0.26;89.07
72210;BME280;60113;48.762;12.302;2023-03-16T08:51:01;97764.84;;;-0.15;89.45
72210;BME280;60113;48.762;12.302;2023-03-16T08:53:26;97750.31;;;-0.19;89.13
72210;BME280;60113;48.762;12.302;2023-03-16T08:55:59;97754.41;;;-0.10;88.99
72210;BME280;60113;48.762;12.302;2023-03-16T08:58:24;97753.16;;;0.05;88.37
72210;BME280;60113;48.762;12.302;2023-03-16T09:00:50;97752.94;;;0.15;88.25
72210;BME280;60113;48.762;12.302;2023-03-16T09:03:18;97751.75;;;0.27;86.90
72210;BME280;60113;48.762;12.302;2023-03-16T09:05:47;97749.59;;;0.44;87.20
72210;BME280;60113;48.762;12.302;2023-03-16T09:08:13;97753.78;;;0.48;86.94
72210;BME280;60113;48.762;12.302;2023-03-16T09:10:38;97755.06;;;0.65;86.28
72210;BME280;60113;48.762;12.302;2023-03-16T09:13:04;97753.66;;;0.85;86.06
72210;BME280;60113;48.762;12.302;2023-03-16T09:15:29;97750.50;;;1.05;84.21
72210;BME280;60113;48.762;12.302;2023-03-16T09:17:58;97733.97;;;1.09;82.46
72210;BME280;60113;48.762;12.302;2023-03-16T09:20:27;97735.09;;;1.29;83.03
72210;BME280;60113;48.762;12.302;2023-03-16T09:22:53;97738.06;;;1.45;83.44
72210;BME280;60113;48.762;12.302;2023-03-16T09:25:19;97737.88;;;1.52;83.03
72210;BME280;60113;48.762;12.302;2023-03-16T09:27:44;97734.81;;;1.67;82.95
72210;BME280;60113;48.762;12.302;2023-03-16T09:30:11;97733.19;;;1.90;82.30
72210;BME280;60113;48.762;12.302;2023-03-16T09:32:40;97734.28;;;2.10;81.63
72210;BME280;60113;48.762;12.302;2023-03-16T09:35:05;97732.63;;;2.33;79.98
72210;BME280;60113;48.762;12.302;2023-03-16T09:37:31;97729.66;;;2.44;80.17
72210;BME280;60113;48.762;12.302;2023-03-16T09:39:56;97730.94;;;2.57;79.29
72210;BME280;60113;48.762;12.302;2023-03-16T09:47:22;97743.03;;;3.29;81.07
72210;BME280;60113;48.762;12.302;2023-03-16T09:49:49;97739.09;;;3.18;78.18
72210;BME280;60113;48.762;12.302;2023-03-16T09:52:24;97732.94;;;3.21;77.07
72210;BME280;60113;48.762;12.302;2023-03-16T09:57:32;97737.22;;;3.44;78.27
72210;BME280;60113;48.762;12.302;2023-03-16T10:00:26;97737.66;;;3.56;77.42
72210;BME280;60113;48.762;12.302;2023-03-16T10:02:57;97746.09;;;3.83;75.46
72210;BME280;60113;48.762;12.302;2023-03-16T10:05:26;97740.56;;;3.91;75.46
72210;BME280;60113;48.762;12.302;2023-03-16T10:13:00;97738.72;;;3.72;74.03
72210;BME280;60113;48.762;12.302;2023-03-16T10:15:28;97732.97;;;3.86;73.30
72210;BME280;60113;48.762;12.302;2023-03-16T10:18:01;97730.63;;;4.22;73.00
72210;BME280;60113;48.762;12.302;2023-03-16T10:20:31;97718.09;;;4.72;74.36
72210;BME280;60113;48.762;12.302;2023-03-16T10:22:57;97725.72;;;4.96;69.22
72210;BME280;60113;48.762;12.302;2023-03-16T10:27:57;97712.38;;;5.78;69.57
72210;BME280;60113;48.762;12.302;2023-03-16T10:30:34;97709.63;;;5.98;69.12
72210;BME280;60113;48.762;12.302;2023-03-16T10:35:41;97699.72;;;6.23;64.73
72210;BME280;60113;48.762;12.302;2023-03-16T10:38:24;97700.09;;;6.33;65.59
72210;BME280;60113;48.762;12.302;2023-03-16T10:40:51;97694.88;;;6.33;65.92
72210;BME280;60113;48.762;12.302;2023-03-16T10:43:17;97686.53;;;6.26;62.43
72210;BME280;60113;48.762;12.302;2023-03-16T10:45:42;97681.97;;;6.30;66.14
72210;BME280;60113;48.762;12.302;2023-03-16T10:48:11;97682.91;;;6.29;65.35
72210;BME280;60113;48.762;12.302;2023-03-16T10:50:38;97676.59;;;6.33;64.82
72210;BME280;60113;48.762;12.302;2023-03-16T10:53:08;97677.34;;;6.53;66.24
72210;BME280;60113;48.762;12.302;2023-03-16T10:55:42;97683.75;;;6.79;62.96
72210;BME280;60113;48.762;12.302;2023-03-16T10:58:08;97676.22;;;7.07;66.13
72210;BME280;60113;48.762;12.302;2023-03-16T11:00:34;97687.31;;;7.10;66.04
72210;BME280;60113;48.762;12.302;2023-03-16T11:03:00;97673.31;;;7.44;67.74
72210;BME280;60113;48.762;12.302;2023-03-16T11:05:30;97679.94;;;7.66;64.88
72210;BME280;60113;48.762;12.302;2023-03-16T11:08:00;97678.81;;;7.70;65.29
72210;BME280;60113;48.762;12.302;2023-03-16T11:10:30;97678.56;;;7.44;66.74
72210;BME280;60113;48.762;12.302;2023-03-16T11:13:09;97670.78;;;7.42;62.78
72210;BME280;60113;48.762;12.302;2023-03-16T11:18:29;97661.41;;;7.54;65.13
72210;BME280;60113;48.762;12.302;2023-03-16T11:21:01;97654.78;;;7.63;60.37
72210;BME280;60113;48.762;12.302;2023-03-16T11:23:31;97651.53;;;7.59;60.57
72210;BME280;60113;48.762;12.302;2023-03-16T11:25:57;97659.22;;;7.77;60.02
72210;BME280;60113;48.762;12.302;2023-03-16T11:33:25;97635.88;;;7.43;63.75
72210;BME280;60113;48.762;12.302;2023-03-16T11:38:32;97631.44;;;7.91;61.95
72210;BME280;60113;48.762;12.302;2023-03-16T11:46:19;97612.94;;;8.37;59.13
72210;BME280;60113;48.762;12.302;2023-03-16T11:54:08;97614.25;;;8.45;60.82
72210;BME280;60113;48.762;12.302;2023-03-16T11:56:48;97598.00;;;8.54;60.40
72210;BME280;60113;48.762;12.302;2023-03-16T11:59:35;97596.00;;;8.72;63.74
72210;BME280;60113;48.762;12.302;2023-03-16T12:07:28;97589.94;;;7.54;56.07
72210;BME280;60113;48.762;12.302;2023-03-16T12:17:46;97596.97;;;8.28;55.22
72210;BME280;60113;48.762;12.302;2023-03-16T12:20:22;97581.41;;;8.54;58.56
72210;BME280;60113;48.762;12.302;2023-03-16T12:22:49;97582.19;;;8.56;53.83
72210;BME280;60113;48.762;12.302;2023-03-16T12:25:17;97579.00;;;8.93;59.63
72210;BME280;60113;48.762;12.302;2023-03-16T12:27:44;97574.78;;;8.90;52.80
72210;BME280;60113;48.762;12.302;2023-03-16T12:32:40;97577.91;;;8.82;47.88
72210;BME280;60113;48.762;12.302;2023-03-16T12:37:35;97562.66;;;9.30;49.19
72210;BME280;60113;48.762;12.302;2023-03-16T12:40:15;97566.09;;;9.58;57.27
72210;BME280;60113;48.762;12.302;2023-03-16T12:45:16;97560.00;;;9.96;60.78
72210;BME280;60113;48.762;12.302;2023-03-16T12:50:51;97544.44;;;10.06;50.30
72210;BME280;60113;48.762;12.302;2023-03-16T12:53:27;97538.47;;;10.04;47.99
72210;BME280;60113;48.762;12.302;2023-03-16T12:55:54;97540.91;;;9.94;47.89
72210;BME280;60113;48.762;12.302;2023-03-16T12:58:22;97540.50;;;9.87;48.13
72210;BME280;60113;48.762;12.302;2023-03-16T13:00:54;97537.13;;;9.72;48.86
72210;BME280;60113;48.762;12.302;2023-03-16T13:03:20;97532.03;;;8.62;44.33
72210;BME280;60113;48.762;12.302;2023-03-16T13:05:54;97527.59;;;8.77;47.30
72210;BME280;60113;48.762;12.302;2023-03-16T13:08:20;97522.69;;;8.85;49.31
72210;BME280;60113;48.762;12.302;2023-03-16T13:11:05;97529.63;;;8.99;50.00
72210;BME280;60113;48.762;12.302;2023-03-16T13:13:31;97527.75;;;9.42;55.24
72210;BME280;60113;48.762;12.302;2023-03-16T13:16:06;97513.50;;;9.59;48.57
72210;BME280;60113;48.762;12.302;2023-03-16T13:18:34;97516.44;;;9.68;46.33
72210;BME280;60113;48.762;12.302;2023-03-16T13:21:00;97520.44;;;9.73;52.43
72210;BME280;60113;48.762;12.302;2023-03-16T13:23:52;97516.63;;;9.65;51.86
72210;BME280;60113;48.762;12.302;2023-03-16T13:26:22;97509.00;;;9.74;44.61
72210;BME280;60113;48.762;12.302;2023-03-16T13:28:51;97512.66;;;9.85;49.67
72210;BME280;60113;48.762;12.302;2023-03-16T13:31:23;97515.59;;;9.93;45.96
72210;BME280;60113;48.762;12.302;2023-03-16T13:33:50;97508.00;;;10.01;47.09
72210;BME280;60113;48.762;12.302;2023-03-16T13:36:17;97509.00;;;9.87;44.94
72210;BME280;60113;48.762;12.302;2023-03-16T13:38:43;97509.31;;;9.70;48.82
72210;BME280;60113;48.762;12.302;2023-03-16T13:41:19;97497.97;;;9.56;46.74
72210;BME280;60113;48.762;12.302;2023-03-16T13:43:44;97497.44;;;9.51;49.13
72210;BME280;60113;48.762;12.302;2023-03-16T13:46:17;97495.94;;;9.21;47.04
72210;BME280;60113;48.762;12.302;2023-03-16T13:48:46;97494.19;;;9.34;51.81
72210;BME280;60113;48.762;12.302;2023-03-16T13:51:18;97497.88;;;9.58;56.15
72210;BME280;60113;48.762;12.302;2023-03-16T13:53:45;97495.00;;;9.35;49.49
72210;BME280;60113;48.762;12.302;2023-03-16T13:56:14;97488.22;;;8.92;46.10
72210;BME280;60113;48.762;12.302;2023-03-16T13:58:42;97489.72;;;9.09;50.65
72210;BME280;60113;48.762;12.302;2023-03-16T14:03:49;97494.59;;;9.28;44.39
72210;BME280;60113;48.762;12.302;2023-03-16T14:06:17;97486.81;;;9.27;45.02